Time;durP1;ratioP1;P1;durP2;ratioP2;P2;SDS_P1;SDS_P2;PMS_P1;PMS_P2;Temp;Humidity;BMP_temperature;BMP_pressure;BME280_temperature;BME280_humidity;BME280_pressure;Samples;Min_cycle;Max_cycle;Signal;HPM_P1;HPM_P2
2023/06/03 00:00:05;;;;;;;8.40;4.10;;;17.40;1.00;;;;;;5010115;28;20186;-74
2023/06/03 00:02:30;;;;;;;10.77;4.43;;;17.40;1.00;;;;;;5012182;28;20190;-75
2023/06/03 00:04:56;;;;;;;11.23;4.20;;;17.40;1.00;;;;;;5010865;28;20459;-76
2023/06/03 00:07:22;;;;;;;9.17;4.30;;;17.40;1.00;;;;;;5011651;28;20198;-74
2023/06/03 00:09:47;;;;;;;8.17;3.97;;;17.30;1.00;;;;;;5012317;28;20245;-74
2023/06/03 00:12:13;;;;;;;16.43;4.00;;;17.30;1.00;;;;;;5011526;28;20183;-74
2023/06/03 00:14:38;;;;;;;10.87;4.10;;;17.30;1.00;;;;;;5011920;28;20309;-75
2023/06/03 00:17:04;;;;;;;11.53;4.20;;;17.30;1.00;;;;;;5011496;28;20244;-72
2023/06/03 00:19:30;;;;;;;7.00;3.60;;;17.30;1.00;;;;;;5012393;28;20174;-75
2023/06/03 00:21:55;;;;;;;8.50;4.30;;;17.30;1.00;;;;;;5011916;28;20194;-75
2023/06/03 00:24:22;;;;;;;7.60;3.73;;;17.40;1.00;;;;;;5011590;28;20212;-76
2023/06/03 00:26:52;;;;;;;9.47;3.90;;;17.30;1.00;;;;;;5010240;28;20205;-74
2023/06/03 00:29:19;;;;;;;6.37;3.90;;;17.30;1.00;;;;;;5011725;28;20434;-76
2023/06/03 00:31:45;;;;;;;14.30;4.40;;;17.30;1.00;;;;;;5010672;28;20532;-74
2023/06/03 00:34:11;;;;;;;10.23;4.03;;;17.20;1.00;;;;;;5011190;28;20886;-75
2023/06/03 00:36:37;;;;;;;12.70;4.30;;;17.20;1.00;;;;;;5011565;28;20549;-75
2023/06/03 00:39:02;;;;;;;8.87;3.97;;;17.20;1.00;;;;;;5011501;28;20214;-75
2023/06/03 00:41:28;;;;;;;7.57;4.20;;;17.20;1.00;;;;;;5009773;28;20187;-75
2023/06/03 00:43:53;;;;;;;8.07;4.40;;;17.20;1.00;;;;;;5011481;28;20190;-75
2023/06/03 00:46:20;;;;;;;7.73;4.47;;;17.20;1.00;;;;;;5010851;28;20241;-74
2023/06/03 00:48:46;;;;;;;14.73;3.90;;;17.20;1.00;;;;;;5011310;28;20186;-74
2023/06/03 00:51:12;;;;;;;10.13;3.90;;;17.20;1.00;;;;;;5011014;28;20432;-74
2023/06/03 00:53:38;;;;;;;12.30;4.30;;;17.10;1.00;;;;;;5011351;28;20509;-75
2023/06/03 00:56:04;;;;;;;13.13;4.50;;;17.10;1.00;;;;;;5011155;28;20480;-74
2023/06/03 00:58:30;;;;;;;13.07;4.03;;;17.10;1.00;;;;;;5011069;28;20289;-74
2023/06/03 01:00:55;;;;;;;8.13;3.80;;;17.00;1.00;;;;;;5011168;28;20465;-74
2023/06/03 01:03:21;;;;;;;8.70;4.10;;;17.00;1.00;;;;;;5010910;28;20186;-75
2023/06/03 01:06:14;;;;;;;12.13;4.13;;;17.00;1.00;;;;;;5010090;28;20210;-75
2023/06/03 01:09:14;;;;;;;8.17;4.10;;;17.00;1.00;;;;;;5004321;28;20198;-75
2023/06/03 01:11:55;;;;;;;9.70;4.27;;;16.90;1.00;;;;;;5009820;28;20437;-76
2023/06/03 01:14:27;;;;;;;12.37;4.17;;;16.90;1.00;;;;;;5010798;28;20428;-75
2023/06/03 01:16:53;;;;;;;10.40;4.30;;;16.90;1.00;;;;;;5010964;28;20443;-75
2023/06/03 01:19:49;;;;;;;9.40;4.43;;;16.90;1.00;;;;;;5010638;28;20468;-75
2023/06/03 01:22:16;;;;;;;8.33;3.60;;;16.90;1.00;;;;;;5010577;28;20989;-74
2023/06/03 01:24:43;;;;;;;5.97;3.63;;;16.80;1.00;;;;;;5010807;28;20513;-74
2023/06/03 01:27:12;;;;;;;15.97;4.83;;;16.80;1.00;;;;;;5010290;28;20444;-74
2023/06/03 01:29:40;;;;;;;9.70;3.93;;;16.80;1.00;;;;;;5010899;28;20425;-74
2023/06/03 01:32:09;;;;;;;7.77;3.63;;;16.70;1.00;;;;;;5010692;28;20796;-74
2023/06/03 01:34:35;;;;;;;9.00;3.90;;;16.70;1.00;;;;;;5010540;28;20440;-75
2023/06/03 01:37:01;;;;;;;7.63;3.73;;;18.00;1.00;;;;;;5010720;28;20430;-74
2023/06/03 01:39:26;;;;;;;7.40;3.70;;;16.70;1.00;;;;;;5010377;28;20193;-73
2023/06/03 01:41:52;;;;;;;10.80;4.10;;;16.70;1.00;;;;;;5010629;28;20188;-74
2023/06/03 01:44:18;;;;;;;6.30;4.10;;;16.60;1.00;;;;;;5010291;28;20307;-74
2023/06/03 01:46:43;;;;;;;10.93;4.10;;;16.70;1.00;;;;;;5010068;28;20210;-75
2023/06/03 01:49:09;;;;;;;9.53;3.90;;;18.40;1.00;;;;;;5010165;28;20196;-72
2023/06/03 01:51:35;;;;;;;10.00;3.83;;;16.70;1.00;;;;;;5010428;28;20194;-74
2023/06/03 01:54:01;;;;;;;5.43;3.53;;;16.60;1.00;;;;;;5010588;28;20194;-74
2023/06/03 01:56:26;;;;;;;6.83;4.17;;;16.60;1.00;;;;;;5009970;28;20749;-74
2023/06/03 01:58:52;;;;;;;6.90;4.07;;;16.60;1.00;;;;;;5010145;28;20464;-74
2023/06/03 02:01:17;;;;;;;9.63;4.17;;;16.60;1.00;;;;;;5009661;28;20190;-73
2023/06/03 02:03:43;;;;;;;8.20;3.93;;;16.60;1.00;;;;;;5010223;28;20194;-74
2023/06/03 02:06:10;;;;;;;7.10;3.90;;;16.50;1.00;;;;;;5009876;28;20206;-75
2023/06/03 02:08:36;;;;;;;15.73;4.60;;;16.50;1.00;;;;;;5010265;28;20190;-74
2023/06/03 02:11:01;;;;;;;13.03;4.27;;;16.50;1.00;;;;;;5010290;28;20950;-74
2023/06/03 02:13:27;;;;;;;16.20;3.80;;;16.50;1.00;;;;;;5010460;28;20265;-74
2023/06/03 02:15:52;;;;;;;7.67;3.73;;;16.50;1.00;;;;;;5009511;28;20601;-74
2023/06/03 02:18:18;;;;;;;12.77;4.43;;;16.40;1.00;;;;;;5009656;28;20237;-74
2023/06/03 02:20:45;;;;;;;10.93;4.23;;;16.40;1.00;;;;;;5010214;28;20197;-74
2023/06/03 02:23:11;;;;;;;6.33;4.10;;;16.40;1.00;;;;;;5013193;28;20683;-72
2023/06/03 02:25:36;;;;;;;14.87;4.23;;;16.40;1.00;;;;;;5013739;28;20535;-74
2023/06/03 02:28:06;;;;;;;5.50;3.43;;;16.30;1.00;;;;;;5014314;28;20518;-75
2023/06/03 02:30:31;;;;;;;7.53;3.90;;;16.30;1.00;;;;;;5013696;28;20577;-74
2023/06/03 02:32:57;;;;;;;5.00;3.70;;;16.30;1.00;;;;;;5014090;28;20421;-74
2023/06/03 02:35:22;;;;;;;9.90;3.77;;;16.10;1.00;;;;;;5013762;28;20218;-74
2023/06/03 02:37:48;;;;;;;6.37;3.67;;;16.10;1.00;;;;;;5013667;28;20205;-75
2023/06/03 02:40:13;;;;;;;8.90;3.50;;;15.90;1.00;;;;;;5013620;28;20250;-74
2023/06/03 02:42:39;;;;;;;8.10;3.90;;;15.90;1.00;;;;;;5013860;28;20711;-74
2023/06/03 02:45:06;;;;;;;8.33;3.40;;;15.80;1.00;;;;;;5013409;28;20206;-74
2023/06/03 02:47:31;;;;;;;13.70;4.10;;;15.80;1.00;;;;;;5012045;28;20208;-74
2023/06/03 02:49:57;;;;;;;8.63;3.80;;;15.70;1.00;;;;;;5013772;28;20975;-74
2023/06/03 02:52:23;;;;;;;9.00;3.80;;;15.60;1.00;;;;;;5013424;28;20328;-74
2023/06/03 02:54:49;;;;;;;7.70;3.70;;;15.40;1.00;;;;;;5013627;28;20202;-74
2023/06/03 02:57:14;;;;;;;10.43;4.07;;;15.40;1.00;;;;;;5012896;28;20293;-74
2023/06/03 02:59:40;;;;;;;10.07;4.10;;;15.30;1.00;;;;;;5013413;28;20460;-74
2023/06/03 03:02:06;;;;;;;12.57;3.70;;;15.30;1.00;;;;;;5012200;28;20178;-74
2023/06/03 03:04:33;;;;;;;12.07;4.50;;;15.20;1.00;;;;;;5012928;28;21033;-73
2023/06/03 03:07:01;;;;;;;9.47;4.00;;;15.20;1.00;;;;;;5013480;28;20202;-74
2023/06/03 03:09:27;;;;;;;9.17;4.00;;;15.10;1.00;;;;;;5013174;28;20421;-74
2023/06/03 03:11:52;;;;;;;9.60;3.97;;;15.00;1.00;;;;;;5013253;28;20440;-74
2023/06/03 03:14:18;;;;;;;8.93;3.53;;;14.90;1.00;;;;;;5012752;28;20232;-74
2023/06/03 03:16:44;;;;;;;8.50;3.70;;;14.90;1.00;;;;;;5013139;28;20206;-74
2023/06/03 03:19:09;;;;;;;9.10;4.33;;;15.00;1.00;;;;;;5013149;28;20289;-74
2023/06/03 03:21:36;;;;;;;9.40;4.00;;;15.20;1.00;;;;;;5012761;28;20178;-74
2023/06/03 03:24:01;;;;;;;9.00;3.93;;;15.30;1.00;;;;;;5013164;28;20178;-74
2023/06/03 03:26:28;;;;;;;8.60;4.23;;;15.30;1.00;;;;;;5012591;28;20445;-74
2023/06/03 03:28:53;;;;;;;8.93;3.30;;;15.40;1.00;;;;;;5012892;28;20636;-74
2023/06/03 03:31:20;;;;;;;11.47;4.60;;;15.50;1.00;;;;;;5012496;28;20428;-74
2023/06/03 03:33:48;;;;;;;11.10;4.27;;;15.50;1.00;;;;;;5013008;28;20687;-74
2023/06/03 03:36:24;;;;;;;12.07;3.77;;;15.50;1.00;;;;;;5013184;28;20808;-74
2023/06/03 03:38:59;;;;;;;9.10;4.20;;;15.60;1.00;;;;;;5012779;28;20464;-75
2023/06/03 03:41:25;;;;;;;10.50;4.13;;;15.70;1.00;;;;;;5012287;28;20816;-74
2023/06/03 03:43:51;;;;;;;10.23;3.70;;;13.20;1.00;;;;;;5012765;28;20420;-74
2023/06/03 03:46:17;;;;;;;8.60;3.97;;;15.80;1.00;;;;;;5012513;28;20461;-73
2023/06/03 03:48:42;;;;;;;10.20;4.67;;;15.90;1.00;;;;;;5012437;28;20189;-74
2023/06/03 03:51:08;;;;;;;6.47;3.50;;;15.90;1.00;;;;;;5012966;28;20932;-74
2023/06/03 03:53:35;;;;;;;8.50;4.37;;;16.00;1.00;;;;;;5012765;28;20198;-75
2023/06/03 03:56:01;;;;;;;10.30;3.80;;;16.00;1.00;;;;;;5009026;28;20206;-74
2023/06/03 03:58:34;;;;;;;5.90;3.87;;;16.00;1.00;;;;;;5010543;28;20531;-74
2023/06/03 04:01:09;;;;;;;8.10;3.87;;;16.00;1.00;;;;;;5012967;28;20262;-74
2023/06/03 04:03:40;;;;;;;16.73;4.60;;;16.10;1.00;;;;;;5012855;28;20787;-74
2023/06/03 04:06:26;;;;;;;15.50;4.10;;;16.00;1.00;;;;;;5011475;28;20449;-74
2023/06/03 04:08:52;;;;;;;9.07;4.83;;;16.10;1.00;;;;;;5011977;28;20430;-75
2023/06/03 04:11:26;;;;;;;10.80;4.90;;;16.10;1.00;;;;;;5011935;28;20761;-73
2023/06/03 04:13:52;;;;;;;8.60;4.40;;;16.10;1.00;;;;;;5012535;28;20934;-74
2023/06/03 04:16:42;;;;;;;6.87;4.30;;;16.10;1.00;;;;;;5011794;28;20967;-73
2023/06/03 04:19:14;;;;;;;9.97;4.27;;;16.10;1.00;;;;;;5012773;28;20534;-75
2023/06/03 04:21:39;;;;;;;11.20;4.50;;;16.20;1.00;;;;;;5012366;28;20424;-74
2023/06/03 04:24:05;;;;;;;6.80;4.00;;;16.20;1.00;;;;;;5011166;28;20426;-75
2023/06/03 04:26:31;;;;;;;9.90;4.37;;;16.10;1.00;;;;;;5011943;28;20199;-75
2023/06/03 04:28:56;;;;;;;9.73;4.50;;;16.10;1.00;;;;;;5012139;28;20193;-74
2023/06/03 04:31:22;;;;;;;10.60;3.80;;;16.20;1.00;;;;;;5010439;28;20179;-74
2023/06/03 04:33:48;;;;;;;7.43;3.90;;;16.20;1.00;;;;;;5010935;28;20183;-73
2023/06/03 04:36:14;;;;;;;9.33;3.97;;;16.20;1.00;;;;;;5012201;28;20206;-74
2023/06/03 04:38:41;;;;;;;10.57;4.47;;;16.20;1.00;;;;;;5011360;28;20461;-74
2023/06/03 04:41:07;;;;;;;10.23;4.70;;;16.30;1.00;;;;;;5012109;28;20237;-74
2023/06/03 04:43:33;;;;;;;8.30;4.53;;;16.30;1.00;;;;;;5011742;28;20998;-75
2023/06/03 04:46:00;;;;;;;11.97;4.80;;;16.40;1.00;;;;;;5009797;28;20206;-74
2023/06/03 04:48:26;;;;;;;19.90;4.97;;;16.30;1.00;;;;;;5011595;28;20441;-74
2023/06/03 04:50:52;;;;;;;11.70;4.60;;;16.40;1.00;;;;;;5012084;28;20422;-75
2023/06/03 04:53:18;;;;;;;12.40;4.63;;;16.40;1.00;;;;;;5011828;28;20432;-74
2023/06/03 04:55:44;;;;;;;13.13;4.70;;;16.40;1.00;;;;;;5010235;28;20206;-74
2023/06/03 04:58:10;;;;;;;11.70;4.90;;;16.40;1.00;;;;;;5006845;28;20638;-74
2023/06/03 05:00:36;;;;;;;8.67;4.60;;;16.40;1.00;;;;;;5011295;28;20186;-73
2023/06/03 05:03:08;;;;;;;7.10;4.80;;;16.40;1.00;;;;;;5010415;28;20464;-74
2023/06/03 05:05:35;;;;;;;8.30;4.40;;;16.50;1.00;;;;;;5011351;28;20446;-74
2023/06/03 05:08:01;;;;;;;8.33;4.40;;;16.50;1.00;;;;;;5011535;28;20437;-74
2023/06/03 05:10:27;;;;;;;6.60;4.00;;;16.50;1.00;;;;;;5011380;28;20481;-74
2023/06/03 05:12:53;;;;;;;6.63;4.17;;;16.50;1.00;;;;;;5011468;28;20185;-74
2023/06/03 05:15:19;;;;;;;9.30;4.50;;;16.60;1.00;;;;;;5011373;28;20202;-74
2023/06/03 05:17:44;;;;;;;9.10;4.23;;;16.60;1.00;;;;;;5010992;28;20202;-75
2023/06/03 05:20:11;;;;;;;7.80;4.73;;;16.70;1.00;;;;;;5011619;28;20237;-76
2023/06/03 05:22:36;;;;;;;11.80;4.27;;;16.80;1.00;;;;;;5011047;28;20182;-77
2023/06/03 05:25:06;;;;;;;8.07;4.40;;;16.90;1.00;;;;;;5011716;28;20437;-75
2023/06/03 05:27:31;;;;;;;8.30;4.93;;;16.90;1.00;;;;;;5010586;28;20660;-75
2023/06/03 05:29:57;;;;;;;10.70;4.73;;;16.90;1.00;;;;;;5011345;28;20429;-75
2023/06/03 05:32:23;;;;;;;18.27;5.37;;;16.90;1.00;;;;;;5010908;28;20302;-74
2023/06/03 05:34:48;;;;;;;7.30;4.70;;;17.00;1.00;;;;;;5011187;28;20226;-75
2023/06/03 05:37:14;;;;;;;6.67;4.40;;;17.00;1.00;;;;;;5011028;28;20664;-75
2023/06/03 05:39:40;;;;;;;8.57;4.90;;;17.10;1.00;;;;;;5010914;28;20648;-75
2023/06/03 05:42:06;;;;;;;9.97;4.47;;;17.20;1.00;;;;;;5010930;28;20190;-74
2023/06/03 05:44:31;;;;;;;7.43;4.70;;;17.30;1.00;;;;;;5010570;28;20193;-74
2023/06/03 05:46:57;;;;;;;8.30;4.73;;;17.30;1.00;;;;;;5010800;28;20421;-75
2023/06/03 05:49:22;;;;;;;6.40;4.70;;;17.30;1.00;;;;;;5010242;28;20192;-74
2023/06/03 05:51:48;;;;;;;7.80;4.60;;;17.40;1.00;;;;;;5010374;28;20186;-76
2023/06/03 05:54:13;;;;;;;11.50;4.73;;;17.40;1.00;;;;;;5010743;28;20293;-75
2023/06/03 05:56:39;;;;;;;18.53;5.00;;;17.40;1.00;;;;;;5008692;28;20214;-75
2023/06/03 05:59:05;;;;;;;6.60;5.07;;;;;;;;;;5010103;28;20202;-75
2023/06/03 06:01:33;;;;;;;7.10;4.83;;;17.50;1.00;;;;;;5010158;28;20448;-74
2023/06/03 06:03:58;;;;;;;8.60;5.10;;;17.60;1.00;;;;;;5010592;28;20190;-75
2023/06/03 06:06:24;;;;;;;9.73;4.83;;;17.60;1.00;;;;;;5009898;28;20445;-75
2023/06/03 06:08:50;;;;;;;12.60;5.40;;;17.60;1.00;;;;;;5010344;28;20248;-75
2023/06/03 06:11:15;;;;;;;8.77;5.70;;;17.70;1.00;;;;;;5010121;28;20210;-75
2023/06/03 06:13:41;;;;;;;7.57;5.00;;;17.80;1.00;;;;;;5009880;28;20272;-75
2023/06/03 06:16:07;;;;;;;7.80;5.10;;;17.90;1.00;;;;;;5008826;28;20209;-75
2023/06/03 06:18:33;;;;;;;9.80;5.27;;;18.00;1.00;;;;;;5009385;28;20210;-74
2023/06/03 06:20:59;;;;;;;8.00;5.17;;;18.10;1.00;;;;;;5010210;28;20645;-75
2023/06/03 06:23:25;;;;;;;7.57;5.27;;;18.20;1.00;;;;;;5008563;28;20189;-74
2023/06/03 06:25:52;;;;;;;8.03;4.97;;;18.30;1.00;;;;;;5008507;28;20202;-75
2023/06/03 06:28:20;;;;;;;7.87;5.00;;;18.30;1.00;;;;;;5009862;28;20580;-75
2023/06/03 06:30:46;;;;;;;9.70;5.00;;;18.40;1.00;;;;;;5009770;28;20433;-75
2023/06/03 06:33:16;;;;;;;8.93;5.10;;;18.40;1.00;;;;;;5008417;28;20480;-75
2023/06/03 06:35:42;;;;;;;6.57;4.80;;;18.60;1.00;;;;;;5009730;28;20793;-75
2023/06/03 06:38:08;;;;;;;9.50;5.03;;;18.60;1.00;;;;;;5009850;28;20500;-75
2023/06/03 06:40:34;;;;;;;8.90;5.20;;;18.80;1.00;;;;;;5009449;28;20538;-75
2023/06/03 06:43:01;;;;;;;9.57;5.20;;;18.90;1.00;;;;;;5010282;28;20656;-75
2023/06/03 06:45:31;;;;;;;7.07;4.47;;;19.00;1.00;;;;;;5009713;28;20441;-74
2023/06/03 06:48:13;;;;;;;7.83;5.10;;;19.00;1.00;;;;;;5009724;28;20916;-75
2023/06/03 06:50:45;;;;;;;8.40;4.80;;;19.10;1.00;;;;;;5009610;28;20448;-75
2023/06/03 06:53:11;;;;;;;8.30;5.20;;;19.10;1.00;;;;;;5009634;28;20433;-75
2023/06/03 06:56:00;;;;;;;8.03;5.40;;;19.30;1.00;;;;;;5009474;28;20442;-75
2023/06/03 06:58:30;;;;;;;10.93;4.93;;;19.30;1.00;;;;;;5006127;28;21117;-75
2023/06/03 07:00:57;;;;;;;9.43;5.07;;;19.50;1.00;;;;;;5009942;28;20518;-75
2023/06/03 07:03:22;;;;;;;9.20;5.03;;;19.70;1.00;;;;;;5009545;28;20779;-75
2023/06/03 07:05:52;;;;;;;6.90;5.20;;;19.70;1.00;;;;;;5008011;28;20524;-75
2023/06/03 07:08:18;;;;;;;8.23;4.90;;;19.80;1.00;;;;;;5010168;28;20364;-75
2023/06/03 07:10:44;;;;;;;7.47;5.13;;;19.90;1.00;;;;;;5013242;28;20651;-76
2023/06/03 07:13:09;;;;;;;10.70;5.47;;;20.00;1.00;;;;;;5013383;28;20421;-76
2023/06/03 07:15:41;;;;;;;9.40;5.27;;;20.10;1.00;;;;;;5011612;28;20260;-75
2023/06/03 07:18:09;;;;;;;11.57;4.70;;;20.40;1.00;;;;;;5012763;28;20296;-75
2023/06/03 07:20:38;;;;;;;13.93;5.80;;;20.30;1.00;;;;;;5013027;28;20432;-75
2023/06/03 07:23:08;;;;;;;8.93;5.20;;;20.50;1.00;;;;;;5013090;28;20437;-76
2023/06/03 07:25:41;;;;;;;7.07;4.90;;;20.60;1.00;;;;;;5012644;28;20535;-75
2023/06/03 07:28:18;;;;;;;9.73;5.00;;;20.70;1.00;;;;;;5012766;28;20441;-76
2023/06/03 07:30:47;;;;;;;11.73;5.70;;;21.00;1.00;;;;;;5012547;28;20428;-76
2023/06/03 07:33:28;;;;;;;7.60;4.90;;;21.10;1.00;;;;;;5012953;28;20437;-76
2023/06/03 07:35:55;;;;;;;10.80;4.60;;;21.60;1.00;;;;;;5012877;28;20440;-76
2023/06/03 07:38:39;;;;;;;9.30;5.30;;;21.70;1.00;;;;;;5012547;28;20452;-75
2023/06/03 07:41:06;;;;;;;10.30;5.20;;;22.00;1.00;;;;;;5006217;28;20424;-76
2023/06/03 07:43:33;;;;;;;7.70;5.00;;;22.20;1.00;;;;;;5012438;28;20420;-76
2023/06/03 07:46:03;;;;;;;12.23;5.07;;;22.60;1.00;;;;;;5012368;28;20448;-76
2023/06/03 07:48:28;;;;;;;9.00;5.10;;;22.70;1.00;;;;;;5011167;28;20425;-76
2023/06/03 07:50:54;;;;;;;11.10;5.10;;;22.90;1.00;;;;;;5004464;28;20437;-76
2023/06/03 07:53:24;;;;;;;8.00;4.90;;;23.00;1.00;;;;;;5012340;28;20181;-76
2023/06/03 07:55:50;;;;;;;9.60;5.20;;;23.00;1.00;;;;;;5009840;28;20583;-75
2023/06/03 07:58:17;;;;;;;9.57;5.37;;;23.00;1.00;;;;;;5006862;28;20464;-76
2023/06/03 08:00:53;;;;;;;12.07;5.40;;;23.00;1.00;;;;;;5012283;28;20429;-76
2023/06/03 08:03:22;;;;;;;9.30;4.70;;;23.30;1.00;;;;;;5010552;28;20486;-76
2023/06/03 08:05:48;;;;;;;9.50;5.60;;;23.70;1.00;;;;;;5010323;28;20449;-75
2023/06/03 08:08:16;;;;;;;7.57;5.43;;;23.80;1.00;;;;;;5012019;28;20437;-76
2023/06/03 08:10:45;;;;;;;8.20;5.17;;;23.90;1.00;;;;;;5011887;28;20425;-76
2023/06/03 08:13:12;;;;;;;9.57;5.40;;;24.00;1.00;;;;;;5012218;28;20425;-76
2023/06/03 08:15:38;;;;;;;13.10;5.13;;;24.10;1.00;;;;;;5011760;28;20451;-75
2023/06/03 08:18:08;;;;;;;8.47;5.37;;;24.20;1.00;;;;;;5010104;28;20465;-76
2023/06/03 08:20:38;;;;;;;24.30;5.73;;;24.50;1.00;;;;;;5010572;28;20511;-75
2023/06/03 08:23:04;;;;;;;13.43;4.70;;;24.50;1.00;;;;;;5011970;28;20452;-76
2023/06/03 08:25:30;;;;;;;8.30;5.23;;;24.50;1.00;;;;;;5011751;28;20471;-75
2023/06/03 08:27:56;;;;;;;12.60;5.50;;;24.50;1.00;;;;;;5011368;28;20197;-76
2023/06/03 08:30:21;;;;;;;13.67;5.57;;;24.70;1.00;;;;;;5011796;28;20433;-76
2023/06/03 08:32:48;;;;;;;16.93;5.60;;;24.90;1.00;;;;;;5011533;28;20319;-77
2023/06/03 08:35:16;;;;;;;8.80;5.43;;;25.10;1.00;;;;;;5011541;28;20222;-76
2023/06/03 08:37:42;;;;;;;15.20;5.50;;;25.10;1.00;;;;;;5011120;28;20555;-75
2023/06/03 08:40:10;;;;;;;10.30;5.40;;;25.20;1.00;;;;;;5011476;28;20560;-76
2023/06/03 08:42:47;;;;;;;8.27;5.37;;;25.30;1.00;;;;;;5011237;28;20420;-76
2023/06/03 08:45:14;;;;;;;10.20;5.23;;;25.30;1.00;;;;;;5011412;28;20449;-76
2023/06/03 08:47:59;;;;;;;8.13;5.90;;;25.40;1.00;;;;;;5010897;28;20428;-76
2023/06/03 08:50:27;;;;;;;15.40;5.10;;;25.60;1.00;;;;;;5011600;28;20454;-76
2023/06/03 08:52:54;;;;;;;10.93;5.93;;;25.40;1.00;;;;;;5011117;28;20437;-76
2023/06/03 08:55:21;;;;;;;11.07;5.90;;;25.40;1.00;;;;;;5011310;28;20494;-77
2023/06/03 08:58:11;;;;;;;12.80;5.80;;;25.30;1.00;;;;;;5004036;28;20587;-76
2023/06/03 09:00:39;;;;;;;8.17;5.23;;;25.60;1.00;;;;;;5011082;28;20424;-76
2023/06/03 09:03:05;;;;;;;15.50;5.27;;;26.20;1.00;;;;;;5011237;28;20421;-77
2023/06/03 09:05:32;;;;;;;7.67;5.60;;;27.90;1.00;;;;;;5011136;28;20452;-76
2023/06/03 09:07:58;;;;;;;9.60;5.70;;;28.30;1.00;;;;;;5010941;28;20421;-77
2023/06/03 09:10:26;;;;;;;12.10;5.70;;;28.90;1.00;;;;;;5011604;28;20196;-76
2023/06/03 09:12:55;;;;;;;13.60;5.23;;;29.20;1.00;;;;;;5010976;28;20196;-77
2023/06/03 09:15:22;;;;;;;10.73;5.85;;;30.00;1.00;;;;;;5010978;28;20584;-77
2023/06/03 09:17:47;;;;;;;7.20;5.57;;;30.30;1.00;;;;;;5010487;28;20212;-77
2023/06/03 09:20:13;;;;;;;9.43;5.07;;;31.00;1.00;;;;;;5010992;28;20182;-76
2023/06/03 09:22:42;;;;;;;9.38;5.50;;;31.60;1.00;;;;;;5010511;28;20182;-76
2023/06/03 09:25:08;;;;;;;14.75;5.45;;;32.70;1.00;;;;;;5010638;28;20692;-77
2023/06/03 09:27:34;;;;;;;9.05;5.45;;;32.70;1.00;;;;;;5010546;28;20190;-77
2023/06/03 09:30:03;;;;;;;7.63;4.90;;;33.00;1.00;;;;;;5002758;28;20170;-77
2023/06/03 09:32:35;;;;;;;9.13;5.30;;;33.20;1.00;;;;;;5010683;28;20170;-77
2023/06/03 09:35:07;;;;;;;8.50;5.35;;;33.00;1.00;;;;;;5010629;28;20278;-77
2023/06/03 09:37:33;;;;;;;7.95;5.40;;;33.20;1.00;;;;;;5009035;28;20537;-77
2023/06/03 09:40:00;;;;;;;7.22;4.80;;;33.20;1.00;;;;;;5010418;28;20251;-77
2023/06/03 09:42:44;;;;;;;9.68;5.30;;;33.50;1.00;;;;;;5010596;28;20194;-77
2023/06/03 09:45:30;;;;;;;11.73;5.10;;;33.50;1.00;;;;;;5003539;28;20213;-77
2023/06/03 09:48:00;;;;;;;11.07;5.18;;;33.70;1.00;;;;;;5010033;28;20196;-77
2023/06/03 09:50:30;;;;;;;9.63;4.78;;;34.00;1.00;;;;;;5011351;28;20190;-76
2023/06/03 09:52:56;;;;;;;10.77;5.53;;;34.80;1.00;;;;;;5010332;28;23026;-76
2023/06/03 09:55:29;;;;;;;8.77;4.75;;;35.80;1.00;;;;;;5010548;28;20680;-76
2023/06/03 09:58:12;;;;;;;8.10;4.85;;;35.90;1.00;;;;;;5002427;28;20210;-76
2023/06/03 10:00:51;;;;;;;8.82;5.47;;;36.00;1.00;;;;;;5010109;28;20201;-76
2023/06/03 10:03:22;;;;;;;11.63;5.47;;;36.30;1.00;;;;;;5010558;28;20182;-77
2023/06/03 10:05:48;;;;;;;7.15;4.70;;;36.80;1.00;;;;;;5010158;28;20202;-76
2023/06/03 10:08:13;;;;;;;11.38;5.18;;;37.00;1.00;;;;;;5010239;28;20186;-77
2023/06/03 10:10:56;;;;;;;11.25;4.70;;;37.30;1.00;;;;;;5009777;28;20663;-77
2023/06/03 10:13:23;;;;;;;12.20;5.22;;;37.60;1.00;;;;;;5010344;28;20182;-77
2023/06/03 10:15:50;;;;;;;10.75;5.28;;;37.70;1.00;;;;;;5009891;28;20206;-77
2023/06/03 10:18:16;;;;;;;13.68;4.90;;;37.60;1.00;;;;;;5010141;28;20204;-77
2023/06/03 10:20:42;;;;;;;7.97;5.25;;;37.00;1.00;;;;;;5010001;28;20525;-77
2023/06/03 10:23:10;;;;;;;10.85;4.60;;;36.60;1.00;;;;;;5010351;28;20193;-77
2023/06/03 10:25:42;;;;;;;8.93;4.70;;;37.40;1.00;;;;;;5008649;28;20292;-76
2023/06/03 10:28:09;;;;;;;9.02;4.55;;;37.90;1.00;;;;;;5002642;28;20247;-77
2023/06/03 10:30:35;;;;;;;6.78;4.60;;;38.00;1.00;;;;;;5010284;28;20186;-77
2023/06/03 10:33:05;;;;;;;11.63;5.10;;;37.90;1.00;;;;;;5009962;28;20266;-77
2023/06/03 10:35:32;;;;;;;9.00;5.15;;;37.80;1.00;;;;;;5009784;28;20726;-77
2023/06/03 10:38:05;;;;;;;11.35;4.90;;;37.80;1.00;;;;;;5009520;28;20212;-77
2023/06/03 10:40:31;;;;;;;6.07;4.90;;;37.80;1.00;;;;;;5008745;28;20264;-77
2023/06/03 10:42:57;;;;;;;22.48;5.25;;;37.90;1.00;;;;;;5011070;28;20324;-77
2023/06/03 10:45:24;;;;;;;7.55;5.22;;;36.90;1.00;;;;;;5013832;28;20209;-77
2023/06/03 10:47:56;;;;;;;9.20;4.80;;;36.80;1.00;;;;;;5013517;28;20264;-76
2023/06/03 10:50:52;;;;;;;8.52;5.40;;;37.20;1.00;;;;;;5013950;28;20667;-76
2023/06/03 10:53:44;;;;;;;9.02;5.32;;;37.50;1.00;;;;;;5013918;28;20182;-77
2023/06/03 10:56:31;;;;;;;9.85;5.60;;;37.80;1.00;;;;;;5013524;28;20213;-77
2023/06/03 10:59:07;;;;;;;11.25;5.18;;;37.90;1.00;;;;;;5011554;28;20209;-77
2023/06/03 11:01:55;;;;;;;8.77;5.25;;;38.20;1.00;;;;;;5013648;28;20236;-77
2023/06/03 11:04:21;;;;;;;9.38;4.78;;;38.30;1.00;;;;;;5007571;28;20641;-77
2023/06/03 11:06:46;;;;;;;13.10;5.20;;;38.00;1.00;;;;;;5013148;28;20213;-77
2023/06/03 11:09:18;;;;;;;6.45;4.78;;;38.20;1.00;;;;;;5013419;28;20193;-77
2023/06/03 11:11:55;;;;;;;9.18;4.82;;;38.90;1.00;;;;;;5013172;28;20202;-75
2023/06/03 11:14:27;;;;;;;7.55;5.20;;;39.60;1.00;;;;;;5013700;28;20182;-77
2023/06/03 11:16:59;;;;;;;6.93;4.53;;;39.00;1.00;;;;;;5012871;28;20259;-77
2023/06/03 11:19:33;;;;;;;6.75;4.95;;;39.00;1.00;;;;;;5013290;28;20580;-77
2023/06/03 11:21:59;;;;;;;10.85;5.32;;;38.90;1.00;;;;;;5013038;28;20177;-76
2023/06/03 11:24:37;;;;;;;8.25;4.82;;;39.30;1.00;;;;;;5013289;28;20542;-76
2023/06/03 11:27:15;;;;;;;11.52;4.88;;;39.50;1.00;;;;;;5011379;28;20644;-76
2023/06/03 11:29:46;;;;;;;7.93;4.80;;;39.10;1.00;;;;;;5013136;28;20190;-76
2023/06/03 11:32:12;;;;;;;7.10;5.05;;;38.80;1.00;;;;;;5005306;28;20204;-76
2023/06/03 11:34:38;;;;;;;7.38;4.85;;;38.60;1.00;;;;;;5013127;28;20197;-77
2023/06/03 11:37:04;;;;;;;8.25;5.22;;;38.70;1.00;;;;;;5012767;28;20189;-77
2023/06/03 11:40:09;;;;;;;11.95;5.20;;;38.70;1.00;;;;;;5011589;28;20619;-76
2023/06/03 11:42:46;;;;;;;8.68;4.85;;;39.20;1.00;;;;;;5012821;28;20186;-77
2023/06/03 11:45:21;;;;;;;6.78;4.68;;;40.30;1.00;;;;;;5005067;28;20574;-77
2023/06/03 11:47:54;;;;;;;6.97;4.70;;;40.50;1.00;;;;;;5012480;28;20215;-76
2023/06/03 11:50:23;;;;;;;7.13;4.85;;;41.30;1.00;;;;;;5012892;28;20174;-78
2023/06/03 11:52:49;;;;;;;7.80;4.65;;;;;;;;;;5012687;28;20588;-77
2023/06/03 11:55:25;;;;;;;7.40;4.70;;;41.30;1.00;;;;;;5012410;28;20206;-77
2023/06/03 11:57:51;;;;;;;10.00;4.50;;;41.30;1.00;;;;;;5010193;28;20210;-76
2023/06/03 12:00:18;;;;;;;8.18;4.70;;;41.90;1.00;;;;;;5012313;28;20278;-77
2023/06/03 12:02:46;;;;;;;13.48;5.20;;;41.60;1.00;;;;;;5012065;28;20201;-78
2023/06/03 12:05:12;;;;;;;7.30;5.28;;;40.70;1.00;;;;;;5011165;28;20294;-77
2023/06/03 12:07:38;;;;;;;8.48;4.93;;;40.90;1.00;;;;;;5012076;28;20676;-76
2023/06/03 12:10:04;;;;;;;7.05;4.95;;;41.50;1.00;;;;;;5012376;28;20194;-76
2023/06/03 12:12:29;;;;;;;9.57;5.07;;;41.90;1.00;;;;;;5012485;28;20588;-76
2023/06/03 12:15:03;;;;;;;13.70;4.93;;;40.00;1.00;;;;;;5011970;28;20213;-79
2023/06/03 12:17:28;;;;;;;8.07;4.75;;;39.90;1.00;;;;;;5012000;28;20264;-77
2023/06/03 12:19:54;;;;;;;6.65;5.00;;;39.40;1.00;;;;;;5012009;28;20268;-77
2023/06/03 12:22:22;;;;;;;9.98;5.25;;;39.70;1.00;;;;;;5012065;28;20506;-77
2023/06/03 12:24:48;;;;;;;9.90;5.20;;;39.80;1.00;;;;;;5012092;28;20588;-77
2023/06/03 12:27:22;;;;;;;9.10;4.90;;;40.00;1.00;;;;;;5011900;28;20204;-77
2023/06/03 12:29:55;;;;;;;13.23;5.40;;;40.30;1.00;;;;;;5011824;28;20224;-76
2023/06/03 12:32:22;;;;;;;6.50;4.90;;;40.70;1.00;;;;;;5011898;28;20637;-77
2023/06/03 12:34:50;;;;;;;11.05;5.20;;;41.40;1.00;;;;;;5011093;28;20208;-75
2023/06/03 12:37:30;;;;;;;7.82;5.03;;;41.50;1.00;;;;;;5011738;28;20186;-76
2023/06/03 12:39:57;;;;;;;7.32;4.90;;;41.90;1.00;;;;;;5011774;28;20190;-77
2023/06/03 12:42:40;;;;;;;8.05;4.82;;;41.90;1.00;;;;;;5011728;28;20265;-77
2023/06/03 12:45:06;;;;;;;8.18;5.10;;;41.70;1.00;;;;;;5011181;28;20210;-77
2023/06/03 12:47:46;;;;;;;6.93;5.07;;;41.50;1.00;;;;;;5011494;28;20244;-77
2023/06/03 12:50:13;;;;;;;8.82;5.47;;;40.80;1.00;;;;;;5011639;28;20262;-76
2023/06/03 12:52:39;;;;;;;12.88;5.53;;;40.50;1.00;;;;;;5011638;28;20240;-77
2023/06/03 12:55:07;;;;;;;10.23;4.93;;;39.30;1.00;;;;;;5011372;28;20199;-76
2023/06/03 12:57:33;;;;;;;17.48;6.55;;;39.20;1.00;;;;;;5010697;28;20186;-76
2023/06/03 13:00:00;;;;;;;12.18;5.80;;;38.90;1.00;;;;;;5011436;28;20217;-76